sensor_id;sensor_type;location;lat;lon;timestamp;temperature;humidity
70300;HTU21D;57704;51.112;5.878;2023-07-31T00:02:20;17.49;85.76
70300;HTU21D;57704;51.112;5.878;2023-07-31T00:04:46;17.48;85.77
70300;HTU21D;57704;51.112;5.878;2023-07-31T00:07:12;17.47;85.81
70300;HTU21D;57704;51.112;5.878;2023-07-31T00:09:38;17.45;85.71
70300;HTU21D;57704;51.112;5.878;2023-07-31T00:12:04;17.45;85.73
70300;HTU21D;57704;51.112;5.878;2023-07-31T00:14:30;17.46;85.66
70300;HTU21D;57704;51.112;5.878;2023-07-31T00:16:56;17.46;85.80
70300;HTU21D;57704;51.112;5.878;2023-07-31T00:19:21;17.47;85.72
70300;HTU21D;57704;51.112;5.878;2023-07-31T00:21:47;17.48;85.68
70300;HTU21D;57704;51.112;5.878;2023-07-31T00:24:13;17.48;85.69
70300;HTU21D;57704;51.112;5.878;2023-07-31T00:26:39;17.49;85.61
70300;HTU21D;57704;51.112;5.878;2023-07-31T00:29:04;17.50;85.73
70300;HTU21D;57704;51.112;5.878;2023-07-31T00:31:30;17.52;85.79
70300;HTU21D;57704;51.112;5.878;2023-07-31T00:33:56;17.55;85.72
70300;HTU21D;57704;51.112;5.878;2023-07-31T00:36:22;17.56;85.61
70300;HTU21D;57704;51.112;5.878;2023-07-31T00:38:48;17.53;85.51
70300;HTU21D;57704;51.112;5.878;2023-07-31T00:41:14;17.52;85.42
70300;HTU21D;57704;51.112;5.878;2023-07-31T00:43:40;17.52;85.51
70300;HTU21D;57704;51.112;5.878;2023-07-31T00:46:07;17.51;85.49
70300;HTU21D;57704;51.112;5.878;2023-07-31T00:48:35;17.50;85.38
70300;HTU21D;57704;51.112;5.878;2023-07-31T00:51:01;17.49;85.24
70300;HTU21D;57704;51.112;5.878;2023-07-31T00:53:28;17.45;85.22
70300;HTU21D;57704;51.112;5.878;2023-07-31T00:55:54;17.45;85.25
70300;HTU21D;57704;51.112;5.878;2023-07-31T00:58:20;17.40;85.15
70300;HTU21D;57704;51.112;5.878;2023-07-31T01:00:45;17.40;85.12
70300;HTU21D;57704;51.112;5.878;2023-07-31T01:03:12;17.41;85.09
70300;HTU21D;57704;51.112;5.878;2023-07-31T01:08:32;17.44;85.11
70300;HTU21D;57704;51.112;5.878;2023-07-31T01:11:38;17.48;85.00
70300;HTU21D;57704;51.112;5.878;2023-07-31T01:13:57;17.47;85.01
70300;HTU21D;57704;51.112;5.878;2023-07-31T01:16:24;17.49;84.94
70300;HTU21D;57704;51.112;5.878;2023-07-31T01:18:50;17.51;84.90
70300;HTU21D;57704;51.112;5.878;2023-07-31T01:26:46;17.63;84.73
70300;HTU21D;57704;51.112;5.878;2023-07-31T01:29:27;17.65;84.71
70300;HTU21D;57704;51.112;5.878;2023-07-31T01:32:01;17.66;84.77
70300;HTU21D;57704;51.112;5.878;2023-07-31T01:34:29;17.69;84.83
70300;HTU21D;57704;51.112;5.878;2023-07-31T01:36:56;17.73;84.90
70300;HTU21D;57704;51.112;5.878;2023-07-31T01:39:24;17.74;84.76
70300;HTU21D;57704;51.112;5.878;2023-07-31T01:41:50;17.76;84.81
70300;HTU21D;57704;51.112;5.878;2023-07-31T01:44:16;17.78;84.77
70300;HTU21D;57704;51.112;5.878;2023-07-31T01:46:41;17.79;84.92
70300;HTU21D;57704;51.112;5.878;2023-07-31T01:49:08;17.83;84.92
70300;HTU21D;57704;51.112;5.878;2023-07-31T01:51:34;17.88;84.87
70300;HTU21D;57704;51.112;5.878;2023-07-31T01:54:02;17.89;84.84
70300;HTU21D;57704;51.112;5.878;2023-07-31T01:56:28;17.92;84.68
70300;HTU21D;57704;51.112;5.878;2023-07-31T01:58:54;17.91;84.83
70300;HTU21D;57704;51.112;5.878;2023-07-31T02:01:20;17.97;84.76
70300;HTU21D;57704;51.112;5.878;2023-07-31T02:03:46;17.99;84.88
70300;HTU21D;57704;51.112;5.878;2023-07-31T02:06:12;18.02;84.96
70300;HTU21D;57704;51.112;5.878;2023-07-31T02:08:37;18.04;84.86
70300;HTU21D;57704;51.112;5.878;2023-07-31T02:11:03;18.07;84.91
70300;HTU21D;57704;51.112;5.878;2023-07-31T02:13:30;18.08;84.94
70300;HTU21D;57704;51.112;5.878;2023-07-31T02:15:56;18.10;85.06
70300;HTU21D;57704;51.112;5.878;2023-07-31T02:18:23;18.12;84.97
70300;HTU21D;57704;51.112;5.878;2023-07-31T02:20:49;18.11;84.81
70300;HTU21D;57704;51.112;5.878;2023-07-31T02:23:17;18.12;85.00
70300;HTU21D;57704;51.112;5.878;2023-07-31T02:25:44;18.14;85.03
70300;HTU21D;57704;51.112;5.878;2023-07-31T02:28:10;18.18;85.02
70300;HTU21D;57704;51.112;5.878;2023-07-31T02:30:36;18.20;84.99
70300;HTU21D;57704;51.112;5.878;2023-07-31T02:33:02;18.22;84.87
70300;HTU21D;57704;51.112;5.878;2023-07-31T02:35:28;18.23;84.89
70300;HTU21D;57704;51.112;5.878;2023-07-31T02:37:54;18.24;84.84
70300;HTU21D;57704;51.112;5.878;2023-07-31T02:40:19;18.25;84.86
70300;HTU21D;57704;51.112;5.878;2023-07-31T02:42:45;18.27;85.02
70300;HTU21D;57704;51.112;5.878;2023-07-31T02:45:11;18.30;84.90
70300;HTU21D;57704;51.112;5.878;2023-07-31T02:47:37;18.35;84.68
70300;HTU21D;57704;51.112;5.878;2023-07-31T02:50:04;18.35;84.69
70300;HTU21D;57704;51.112;5.878;2023-07-31T02:52:30;18.33;84.32
70300;HTU21D;57704;51.112;5.878;2023-07-31T02:54:57;18.33;84.75
70300;HTU21D;57704;51.112;5.878;2023-07-31T02:57:23;18.36;84.80
70300;HTU21D;57704;51.112;5.878;2023-07-31T02:59:49;18.39;84.68
70300;HTU21D;57704;51.112;5.878;2023-07-31T03:02:15;18.40;84.58
70300;HTU21D;57704;51.112;5.878;2023-07-31T03:04:40;18.40;84.70
70300;HTU21D;57704;51.112;5.878;2023-07-31T03:07:06;18.39;84.44
70300;HTU21D;57704;51.112;5.878;2023-07-31T03:09:32;18.39;84.50
70300;HTU21D;57704;51.112;5.878;2023-07-31T03:11:58;18.42;84.74
70300;HTU21D;57704;51.112;5.878;2023-07-31T03:14:25;18.44;84.72
70300;HTU21D;57704;51.112;5.878;2023-07-31T03:16:54;18.42;84.53
70300;HTU21D;57704;51.112;5.878;2023-07-31T03:19:20;18.43;84.70
70300;HTU21D;57704;51.112;5.878;2023-07-31T03:21:46;18.43;84.65
70300;HTU21D;57704;51.112;5.878;2023-07-31T03:24:12;18.42;84.50
70300;HTU21D;57704;51.112;5.878;2023-07-31T03:26:38;18.43;84.65
70300;HTU21D;57704;51.112;5.878;2023-07-31T03:29:07;18.43;84.41
70300;HTU21D;57704;51.112;5.878;2023-07-31T03:31:33;18.43;84.87
70300;HTU21D;57704;51.112;5.878;2023-07-31T03:34:00;18.47;84.81
70300;HTU21D;57704;51.112;5.878;2023-07-31T03:36:26;18.47;84.50
70300;HTU21D;57704;51.112;5.878;2023-07-31T03:38:53;18.47;84.83
70300;HTU21D;57704;51.112;5.878;2023-07-31T03:41:19;18.49;84.80
70300;HTU21D;57704;51.112;5.878;2023-07-31T03:43:49;18.49;84.59
70300;HTU21D;57704;51.112;5.878;2023-07-31T03:46:15;18.49;84.70
70300;HTU21D;57704;51.112;5.878;2023-07-31T03:48:41;18.48;84.77
70300;HTU21D;57704;51.112;5.878;2023-07-31T03:51:06;18.48;84.81
70300;HTU21D;57704;51.112;5.878;2023-07-31T03:53:32;18.46;84.72
70300;HTU21D;57704;51.112;5.878;2023-07-31T03:55:58;18.46;84.86
70300;HTU21D;57704;51.112;5.878;2023-07-31T03:58:24;18.49;84.77
70300;HTU21D;57704;51.112;5.878;2023-07-31T04:00:49;18.50;84.68
70300;HTU21D;57704;51.112;5.878;2023-07-31T04:03:15;18.43;84.19
70300;HTU21D;57704;51.112;5.878;2023-07-31T04:05:42;18.46;84.69
70300;HTU21D;57704;51.112;5.878;2023-07-31T04:08:07;18.48;84.68
70300;HTU21D;57704;51.112;5.878;2023-07-31T04:10:33;18.51;84.45
70300;HTU21D;57704;51.112;5.878;2023-07-31T04:13:00;18.53;84.23
70300;HTU21D;57704;51.112;5.878;2023-07-31T04:15:26;18.53;83.99
70300;HTU21D;57704;51.112;5.878;2023-07-31T04:17:52;18.55;84.05
70300;HTU21D;57704;51.112;5.878;2023-07-31T04:20:17;18.58;83.75
70300;HTU21D;57704;51.112;5.878;2023-07-31T04:22:43;18.61;83.73
70300;HTU21D;57704;51.112;5.878;2023-07-31T04:25:09;18.68;83.48
70300;HTU21D;57704;51.112;5.878;2023-07-31T04:27:35;18.70;83.13
70300;HTU21D;57704;51.112;5.878;2023-07-31T04:30:01;18.72;82.97
70300;HTU21D;57704;51.112;5.878;2023-07-31T04:32:26;18.73;82.78
70300;HTU21D;57704;51.112;5.878;2023-07-31T04:34:52;18.74;82.75
70300;HTU21D;57704;51.112;5.878;2023-07-31T04:37:18;18.78;82.71
70300;HTU21D;57704;51.112;5.878;2023-07-31T04:39:44;18.81;82.55
70300;HTU21D;57704;51.112;5.878;2023-07-31T04:42:09;18.86;82.41
70300;HTU21D;57704;51.112;5.878;2023-07-31T04:44:35;18.86;82.06
70300;HTU21D;57704;51.112;5.878;2023-07-31T04:47:01;18.88;81.91
70300;HTU21D;57704;51.112;5.878;2023-07-31T04:49:28;18.88;81.76
70300;HTU21D;57704;51.112;5.878;2023-07-31T04:51:53;18.91;81.43
70300;HTU21D;57704;51.112;5.878;2023-07-31T04:54:19;18.91;81.20
70300;HTU21D;57704;51.112;5.878;2023-07-31T04:56:45;18.91;81.10
70300;HTU21D;57704;51.112;5.878;2023-07-31T04:59:11;18.88;80.99
70300;HTU21D;57704;51.112;5.878;2023-07-31T05:01:36;18.89;81.04
70300;HTU21D;57704;51.112;5.878;2023-07-31T05:04:02;18.89;80.94
70300;HTU21D;57704;51.112;5.878;2023-07-31T05:06:28;18.89;80.69
70300;HTU21D;57704;51.112;5.878;2023-07-31T05:08:54;18.87;80.62
70300;HTU21D;57704;51.112;5.878;2023-07-31T05:11:19;18.85;80.74
70300;HTU21D;57704;51.112;5.878;2023-07-31T05:13:45;18.77;80.80
70300;HTU21D;57704;51.112;5.878;2023-07-31T05:16:11;18.58;81.07
70300;HTU21D;57704;51.112;5.878;2023-07-31T05:18:37;18.35;81.75
70300;HTU21D;57704;51.112;5.878;2023-07-31T05:21:02;18.12;82.79
70300;HTU21D;57704;51.112;5.878;2023-07-31T05:23:28;18.03;83.19
70300;HTU21D;57704;51.112;5.878;2023-07-31T05:25:54;17.96;83.79
70300;HTU21D;57704;51.112;5.878;2023-07-31T05:28:21;17.92;83.97
70300;HTU21D;57704;51.112;5.878;2023-07-31T05:30:47;17.82;84.29
70300;HTU21D;57704;51.112;5.878;2023-07-31T05:33:13;17.80;84.61
70300;HTU21D;57704;51.112;5.878;2023-07-31T05:35:39;17.79;84.86
70300;HTU21D;57704;51.112;5.878;2023-07-31T05:38:04;17.80;85.04
70300;HTU21D;57704;51.112;5.878;2023-07-31T05:40:32;17.82;84.74
70300;HTU21D;57704;51.112;5.878;2023-07-31T05:42:58;17.79;85.10
70300;HTU21D;57704;51.112;5.878;2023-07-31T05:45:25;17.78;85.06
70300;HTU21D;57704;51.112;5.878;2023-07-31T05:47:50;17.75;85.09
70300;HTU21D;57704;51.112;5.878;2023-07-31T05:50:16;17.75;85.19
70300;HTU21D;57704;51.112;5.878;2023-07-31T05:52:42;17.73;85.61
70300;HTU21D;57704;51.112;5.878;2023-07-31T05:55:08;17.72;85.62
70300;HTU21D;57704;51.112;5.878;2023-07-31T05:57:34;17.74;85.42
70300;HTU21D;57704;51.112;5.878;2023-07-31T06:00:00;17.74;85.66
70300;HTU21D;57704;51.112;5.878;2023-07-31T06:02:25;17.78;85.67
70300;HTU21D;57704;51.112;5.878;2023-07-31T06:04:51;17.78;85.73
70300;HTU21D;57704;51.112;5.878;2023-07-31T06:07:17;17.78;85.86
70300;HTU21D;57704;51.112;5.878;2023-07-31T06:09:43;17.82;85.72
70300;HTU21D;57704;51.112;5.878;2023-07-31T06:12:08;17.84;85.72
70300;HTU21D;57704;51.112;5.878;2023-07-31T06:14:34;17.82;85.84
70300;HTU21D;57704;51.112;5.878;2023-07-31T06:17:00;17.79;85.76
70300;HTU21D;57704;51.112;5.878;2023-07-31T06:19:26;17.82;85.81
70300;HTU21D;57704;51.112;5.878;2023-07-31T06:21:52;17.88;85.76
70300;HTU21D;57704;51.112;5.878;2023-07-31T06:24:19;17.89;86.00
70300;HTU21D;57704;51.112;5.878;2023-07-31T06:26:46;17.90;85.67
70300;HTU21D;57704;51.112;5.878;2023-07-31T06:29:12;17.87;85.58
70300;HTU21D;57704;51.112;5.878;2023-07-31T06:31:38;17.83;85.81
70300;HTU21D;57704;51.112;5.878;2023-07-31T06:34:04;17.82;85.95
70300;HTU21D;57704;51.112;5.878;2023-07-31T06:36:30;17.83;85.82
70300;HTU21D;57704;51.112;5.878;2023-07-31T06:38:56;17.82;85.92
70300;HTU21D;57704;51.112;5.878;2023-07-31T06:41:22;17.78;85.88
70300;HTU21D;57704;51.112;5.878;2023-07-31T06:43:48;17.68;86.02
70300;HTU21D;57704;51.112;5.878;2023-07-31T06:46:14;17.61;86.01
70300;HTU21D;57704;51.112;5.878;2023-07-31T06:48:40;17.61;86.39
70300;HTU21D;57704;51.112;5.878;2023-07-31T06:51:06;17.62;86.32
70300;HTU21D;57704;51.112;5.878;2023-07-31T06:53:32;17.53;86.44
70300;HTU21D;57704;51.112;5.878;2023-07-31T06:55:57;17.52;86.77
70300;HTU21D;57704;51.112;5.878;2023-07-31T06:58:23;17.50;86.98
70300;HTU21D;57704;51.112;5.878;2023-07-31T07:00:49;17.53;86.99
70300;HTU21D;57704;51.112;5.878;2023-07-31T07:03:18;17.55;86.93
70300;HTU21D;57704;51.112;5.878;2023-07-31T07:05:44;17.51;86.81
70300;HTU21D;57704;51.112;5.878;2023-07-31T07:08:10;17.49;86.90
70300;HTU21D;57704;51.112;5.878;2023-07-31T07:10:36;17.48;87.14
70300;HTU21D;57704;51.112;5.878;2023-07-31T07:13:02;17.49;87.31
70300;HTU21D;57704;51.112;5.878;2023-07-31T07:15:28;17.48;87.34
70300;HTU21D;57704;51.112;5.878;2023-07-31T07:17:54;17.51;87.23
70300;HTU21D;57704;51.112;5.878;2023-07-31T07:20:20;17.50;87.32
70300;HTU21D;57704;51.112;5.878;2023-07-31T07:22:46;17.46;87.65
70300;HTU21D;57704;51.112;5.878;2023-07-31T07:25:12;17.47;87.69
70300;HTU21D;57704;51.112;5.878;2023-07-31T07:27:37;17.51;87.89
70300;HTU21D;57704;51.112;5.878;2023-07-31T07:30:04;17.63;87.54
70300;HTU21D;57704;51.112;5.878;2023-07-31T07:32:30;17.58;87.57
70300;HTU21D;57704;51.112;5.878;2023-07-31T07:34:55;17.59;87.89
70300;HTU21D;57704;51.112;5.878;2023-07-31T07:37:22;17.61;87.83
70300;HTU21D;57704;51.112;5.878;2023-07-31T07:39:48;17.63;87.93
70300;HTU21D;57704;51.112;5.878;2023-07-31T07:42:13;17.69;87.83
70300;HTU21D;57704;51.112;5.878;2023-07-31T07:44:39;17.67;87.57
70300;HTU21D;57704;51.112;5.878;2023-07-31T07:47:05;17.64;87.68
70300;HTU21D;57704;51.112;5.878;2023-07-31T07:49:33;17.67;88.14
70300;HTU21D;57704;51.112;5.878;2023-07-31T07:51:59;17.79;88.15
70300;HTU21D;57704;51.112;5.878;2023-07-31T07:54:24;17.85;87.81
70300;HTU21D;57704;51.112;5.878;2023-07-31T07:56:50;17.90;87.98
70300;HTU21D;57704;51.112;5.878;2023-07-31T07:59:16;17.95;87.85
70300;HTU21D;57704;51.112;5.878;2023-07-31T08:01:42;18.04;88.03
70300;HTU21D;57704;51.112;5.878;2023-07-31T08:04:08;18.10;87.75
70300;HTU21D;57704;51.112;5.878;2023-07-31T08:06:33;18.09;87.42
70300;HTU21D;57704;51.112;5.878;2023-07-31T08:08:59;18.02;87.31
70300;HTU21D;57704;51.112;5.878;2023-07-31T08:11:30;17.95;87.29
70300;HTU21D;57704;51.112;5.878;2023-07-31T08:13:56;17.93;87.86
70300;HTU21D;57704;51.112;5.878;2023-07-31T08:16:22;17.84;87.70
70300;HTU21D;57704;51.112;5.878;2023-07-31T08:18:48;17.79;87.80
70300;HTU21D;57704;51.112;5.878;2023-07-31T08:21:14;17.74;87.90
70300;HTU21D;57704;51.112;5.878;2023-07-31T08:23:40;17.69;88.04
70300;HTU21D;57704;51.112;5.878;2023-07-31T08:26:06;17.69;88.13
70300;HTU21D;57704;51.112;5.878;2023-07-31T08:28:32;17.69;88.37
70300;HTU21D;57704;51.112;5.878;2023-07-31T08:30:58;17.75;88.50
70300;HTU21D;57704;51.112;5.878;2023-07-31T08:33:24;17.83;88.57
70300;HTU21D;57704;51.112;5.878;2023-07-31T08:35:50;17.94;88.74
70300;HTU21D;57704;51.112;5.878;2023-07-31T08:38:16;17.98;88.45
70300;HTU21D;57704;51.112;5.878;2023-07-31T08:40:42;18.07;88.57
70300;HTU21D;57704;51.112;5.878;2023-07-31T08:43:09;18.20;88.79
70300;HTU21D;57704;51.112;5.878;2023-07-31T08:45:34;18.32;88.50
70300;HTU21D;57704;51.112;5.878;2023-07-31T08:48:01;18.33;88.20
70300;HTU21D;57704;51.112;5.878;2023-07-31T08:50:27;18.37;88.30
70300;HTU21D;57704;51.112;5.878;2023-07-31T08:52:53;18.40;88.06
70300;HTU21D;57704;51.112;5.878;2023-07-31T08:55:19;18.53;88.41
70300;HTU21D;57704;51.112;5.878;2023-07-31T08:57:52;18.62;87.76
70300;HTU21D;57704;51.112;5.878;2023-07-31T09:00:21;18.64;88.14
70300;HTU21D;57704;51.112;5.878;2023-07-31T09:03:13;18.76;88.18
70300;HTU21D;57704;51.112;5.878;2023-07-31T09:05:43;18.93;88.19
70300;HTU21D;57704;51.112;5.878;2023-07-31T09:08:11;18.81;87.22
70300;HTU21D;57704;51.112;5.878;2023-07-31T09:10:42;18.74;87.39
70300;HTU21D;57704;51.112;5.878;2023-07-31T09:13:09;18.74;87.58
70300;HTU21D;57704;51.112;5.878;2023-07-31T09:15:36;18.76;87.46
70300;HTU21D;57704;51.112;5.878;2023-07-31T09:18:05;18.71;87.36
70300;HTU21D;57704;51.112;5.878;2023-07-31T09:20:31;18.72;87.29
70300;HTU21D;57704;51.112;5.878;2023-07-31T09:23:12;18.52;87.14
70300;HTU21D;57704;51.112;5.878;2023-07-31T09:25:40;18.42;87.46
70300;HTU21D;57704;51.112;5.878;2023-07-31T09:28:10;18.41;87.73
70300;HTU21D;57704;51.112;5.878;2023-07-31T09:30:49;18.49;87.89
70300;HTU21D;57704;51.112;5.878;2023-07-31T09:33:15;18.52;87.61
70300;HTU21D;57704;51.112;5.878;2023-07-31T09:35:41;18.50;87.48
70300;HTU21D;57704;51.112;5.878;2023-07-31T09:38:10;18.50;87.52
70300;HTU21D;57704;51.112;5.878;2023-07-31T09:40:39;18.53;87.49
70300;HTU21D;57704;51.112;5.878;2023-07-31T09:43:07;18.57;87.49
70300;HTU21D;57704;51.112;5.878;2023-07-31T09:45:38;18.72;87.61
70300;HTU21D;57704;51.112;5.878;2023-07-31T09:48:13;18.97;87.47
70300;HTU21D;57704;51.112;5.878;2023-07-31T09:50:46;19.21;86.89
70300;HTU21D;57704;51.112;5.878;2023-07-31T09:53:13;19.44;86.35
70300;HTU21D;57704;51.112;5.878;2023-07-31T09:55:40;19.55;85.81
70300;HTU21D;57704;51.112;5.878;2023-07-31T09:58:09;19.66;85.48
70300;HTU21D;57704;51.112;5.878;2023-07-31T10:00:36;19.74;84.77
70300;HTU21D;57704;51.112;5.878;2023-07-31T10:03:06;19.90;84.90
70300;HTU21D;57704;51.112;5.878;2023-07-31T10:05:42;20.00;84.23
70300;HTU21D;57704;51.112;5.878;2023-07-31T10:08:11;19.89;83.61
70300;HTU21D;57704;51.112;5.878;2023-07-31T10:10:42;19.79;83.58
70300;HTU21D;57704;51.112;5.878;2023-07-31T10:13:09;19.68;82.40
70300;HTU21D;57704;51.112;5.878;2023-07-31T10:15:36;19.52;83.82
70300;HTU21D;57704;51.112;5.878;2023-07-31T10:18:02;19.44;84.08
70300;HTU21D;57704;51.112;5.878;2023-07-31T10:20:29;19.46;83.97
70300;HTU21D;57704;51.112;5.878;2023-07-31T10:22:56;19.53;84.29
70300;HTU21D;57704;51.112;5.878;2023-07-31T10:25:22;19.55;83.81
70300;HTU21D;57704;51.112;5.878;2023-07-31T10:27:49;19.53;83.80
70300;HTU21D;57704;51.112;5.878;2023-07-31T10:30:18;19.56;84.16
70300;HTU21D;57704;51.112;5.878;2023-07-31T10:32:47;19.67;84.35
70300;HTU21D;57704;51.112;5.878;2023-07-31T10:35:16;19.68;83.71
70300;HTU21D;57704;51.112;5.878;2023-07-31T10:37:43;19.72;83.84
70300;HTU21D;57704;51.112;5.878;2023-07-31T10:42:45;19.83;83.49
70300;HTU21D;57704;51.112;5.878;2023-07-31T10:45:13;19.86;82.70
70300;HTU21D;57704;51.112;5.878;2023-07-31T10:47:45;19.83;83.15
70300;HTU21D;57704;51.112;5.878;2023-07-31T10:50:21;19.79;82.90
70300;HTU21D;57704;51.112;5.878;2023-07-31T10:52:52;19.84;83.42
70300;HTU21D;57704;51.112;5.878;2023-07-31T10:55:40;19.90;83.04
70300;HTU21D;57704;51.112;5.878;2023-07-31T10:58:12;19.80;82.88
70300;HTU21D;57704;51.112;5.878;2023-07-31T11:00:41;19.75;83.36
70300;HTU21D;57704;51.112;5.878;2023-07-31T11:03:24;19.83;83.43
70300;HTU21D;57704;51.112;5.878;2023-07-31T11:05:52;20.09;82.87
70300;HTU21D;57704;51.112;5.878;2023-07-31T11:08:24;20.48;83.05
70300;HTU21D;57704;51.112;5.878;2023-07-31T11:13:32;21.10;81.12
70300;HTU21D;57704;51.112;5.878;2023-07-31T11:15:58;21.20;79.88
70300;HTU21D;57704;51.112;5.878;2023-07-31T11:18:26;21.15;80.30
70300;HTU21D;57704;51.112;5.878;2023-07-31T11:20:53;21.05;80.06
70300;HTU21D;57704;51.112;5.878;2023-07-31T11:23:22;20.87;79.91
70300;HTU21D;57704;51.112;5.878;2023-07-31T11:25:49;20.71;80.46
70300;HTU21D;57704;51.112;5.878;2023-07-31T11:28:20;20.58;81.14
70300;HTU21D;57704;51.112;5.878;2023-07-31T11:30:47;20.50;81.10
70300;HTU21D;57704;51.112;5.878;2023-07-31T11:33:13;20.34;81.43
70300;HTU21D;57704;51.112;5.878;2023-07-31T11:35:46;20.27;81.88
70300;HTU21D;57704;51.112;5.878;2023-07-31T11:40:53;20.12;81.94
70300;HTU21D;57704;51.112;5.878;2023-07-31T11:43:21;20.14;81.77
70300;HTU21D;57704;51.112;5.878;2023-07-31T11:45:48;20.15;82.36
70300;HTU21D;57704;51.112;5.878;2023-07-31T11:48:30;20.21;82.14
70300;HTU21D;57704;51.112;5.878;2023-07-31T11:51:04;20.29;82.08
70300;HTU21D;57704;51.112;5.878;2023-07-31T11:53:51;20.34;81.79
70300;HTU21D;57704;51.112;5.878;2023-07-31T11:56:20;20.37;81.93
70300;HTU21D;57704;51.112;5.878;2023-07-31T11:58:53;20.47;81.83
70300;HTU21D;57704;51.112;5.878;2023-07-31T12:01:21;20.59;81.49
70300;HTU21D;57704;51.112;5.878;2023-07-31T12:03:49;20.68;81.30
70300;HTU21D;57704;51.112;5.878;2023-07-31T12:06:15;20.63;80.93
70300;HTU21D;57704;51.112;5.878;2023-07-31T12:08:41;20.63;81.75
70300;HTU21D;57704;51.112;5.878;2023-07-31T12:11:09;20.73;81.49
70300;HTU21D;57704;51.112;5.878;2023-07-31T12:13:35;20.80;81.57
70300;HTU21D;57704;51.112;5.878;2023-07-31T12:16:03;20.80;80.35
70300;HTU21D;57704;51.112;5.878;2023-07-31T12:18:34;20.84;81.43
70300;HTU21D;57704;51.112;5.878;2023-07-31T12:21:04;20.99;81.43
70300;HTU21D;57704;51.112;5.878;2023-07-31T12:23:31;21.24;80.65
70300;HTU21D;57704;51.112;5.878;2023-07-31T12:26:09;21.48;79.43
70300;HTU21D;57704;51.112;5.878;2023-07-31T12:28:47;21.70;79.84
70300;HTU21D;57704;51.112;5.878;2023-07-31T12:31:22;21.89;79.53
70300;HTU21D;57704;51.112;5.878;2023-07-31T12:33:50;21.87;78.29
70300;HTU21D;57704;51.112;5.878;2023-07-31T12:36:20;21.87;79.02
70300;HTU21D;57704;51.112;5.878;2023-07-31T12:38:46;21.99;78.98
70300;HTU21D;57704;51.112;5.878;2023-07-31T12:41:12;22.23;78.98
70300;HTU21D;57704;51.112;5.878;2023-07-31T12:43:40;22.52;78.89
70300;HTU21D;57704;51.112;5.878;2023-07-31T12:46:07;22.87;77.40
70300;HTU21D;57704;51.112;5.878;2023-07-31T12:48:34;22.99;76.16
70300;HTU21D;57704;51.112;5.878;2023-07-31T12:51:00;23.11;75.22
70300;HTU21D;57704;51.112;5.878;2023-07-31T12:53:26;23.23;76.18
70300;HTU21D;57704;51.112;5.878;2023-07-31T12:55:52;23.41;75.24
70300;HTU21D;57704;51.112;5.878;2023-07-31T12:58:18;23.62;75.18
70300;HTU21D;57704;51.112;5.878;2023-07-31T13:00:44;23.85;74.75
70300;HTU21D;57704;51.112;5.878;2023-07-31T13:03:09;23.87;74.04
70300;HTU21D;57704;51.112;5.878;2023-07-31T13:05:36;23.76;73.32
70300;HTU21D;57704;51.112;5.878;2023-07-31T13:08:02;23.60;72.78
70300;HTU21D;57704;51.112;5.878;2023-07-31T13:10:28;23.47;73.22
70300;HTU21D;57704;51.112;5.878;2023-07-31T13:12:55;23.62;73.62
70300;HTU21D;57704;51.112;5.878;2023-07-31T13:15:21;23.86;71.95
70300;HTU21D;57704;51.112;5.878;2023-07-31T13:17:46;23.77;70.66
70300;HTU21D;57704;51.112;5.878;2023-07-31T13:20:12;23.55;71.48
70300;HTU21D;57704;51.112;5.878;2023-07-31T13:22:38;23.22;70.73
70300;HTU21D;57704;51.112;5.878;2023-07-31T13:25:05;22.93;70.55
70300;HTU21D;57704;51.112;5.878;2023-07-31T13:27:31;22.75;72.28
70300;HTU21D;57704;51.112;5.878;2023-07-31T13:29:57;22.61;72.51
70300;HTU21D;57704;51.112;5.878;2023-07-31T13:32:23;22.52;71.97
70300;HTU21D;57704;51.112;5.878;2023-07-31T13:34:49;22.40;72.13
70300;HTU21D;57704;51.112;5.878;2023-07-31T13:37:15;22.24;72.31
70300;HTU21D;57704;51.112;5.878;2023-07-31T13:39:42;22.17;72.56
70300;HTU21D;57704;51.112;5.878;2023-07-31T13:42:09;22.08;72.74
70300;HTU21D;57704;51.112;5.878;2023-07-31T13:44:40;22.05;72.99
70300;HTU21D;57704;51.112;5.878;2023-07-31T13:47:07;21.97;73.10
70300;HTU21D;57704;51.112;5.878;2023-07-31T13:49:33;21.90;72.22
70300;HTU21D;57704;51.112;5.878;2023-07-31T13:52:00;21.79;72.99
70300;HTU21D;57704;51.112;5.878;2023-07-31T13:54:25;21.74;72.48
70300;HTU21D;57704;51.112;5.878;2023-07-31T13:56:52;21.74;72.87
70300;HTU21D;57704;51.112;5.878;2023-07-31T13:59:19;21.73;73.32
70300;HTU21D;57704;51.112;5.878;2023-07-31T14:01:45;21.60;73.95
70300;HTU21D;57704;51.112;5.878;2023-07-31T14:04:11;21.51;74.03
70300;HTU21D;57704;51.112;5.878;2023-07-31T14:06:37;21.44;74.10
70300;HTU21D;57704;51.112;5.878;2023-07-31T14:09:03;21.45;73.93
70300;HTU21D;57704;51.112;5.878;2023-07-31T14:11:31;21.57;73.84
70300;HTU21D;57704;51.112;5.878;2023-07-31T14:13:56;21.62;73.63
70300;HTU21D;57704;51.112;5.878;2023-07-31T14:16:23;21.76;73.40
70300;HTU21D;57704;51.112;5.878;2023-07-31T14:18:49;21.87;72.95
70300;HTU21D;57704;51.112;5.878;2023-07-31T14:21:16;21.96;72.59
70300;HTU21D;57704;51.112;5.878;2023-07-31T14:23:42;22.12;72.19
70300;HTU21D;57704;51.112;5.878;2023-07-31T14:26:08;22.24;71.58
70300;HTU21D;57704;51.112;5.878;2023-07-31T14:28:34;22.22;70.72
70300;HTU21D;57704;51.112;5.878;2023-07-31T14:30:59;22.19;70.88
70300;HTU21D;57704;51.112;5.878;2023-07-31T14:33:25;22.16;70.39
70300;HTU21D;57704;51.112;5.878;2023-07-31T14:35:51;22.05;70.74
70300;HTU21D;57704;51.112;5.878;2023-07-31T14:38:17;21.98;71.08
70300;HTU21D;57704;51.112;5.878;2023-07-31T14:40:43;21.89;70.75
70300;HTU21D;57704;51.112;5.878;2023-07-31T14:43:09;21.81;70.78
70300;HTU21D;57704;51.112;5.878;2023-07-31T14:45:35;21.74;70.40
70300;HTU21D;57704;51.112;5.878;2023-07-31T14:48:00;21.67;71.15
70300;HTU21D;57704;51.112;5.878;2023-07-31T14:50:26;21.49;71.34
70300;HTU21D;57704;51.112;5.878;2023-07-31T14:52:52;21.28;72.45
70300;HTU21D;57704;51.112;5.878;2023-07-31T14:55:19;21.06;73.10
70300;HTU21D;57704;51.112;5.878;2023-07-31T14:57:44;20.77;73.70
70300;HTU21D;57704;51.112;5.878;2023-07-31T15:00:10;20.46;74.76
70300;HTU21D;57704;51.112;5.878;2023-07-31T15:02:40;20.12;76.41
70300;HTU21D;57704;51.112;5.878;2023-07-31T15:05:06;19.86;77.29
70300;HTU21D;57704;51.112;5.878;2023-07-31T15:07:33;19.67;78.48
70300;HTU21D;57704;51.112;5.878;2023-07-31T15:10:01;19.54;79.31
70300;HTU21D;57704;51.112;5.878;2023-07-31T15:12:27;19.40;79.82
70300;HTU21D;57704;51.112;5.878;2023-07-31T15:14:53;19.32;80.43
70300;HTU21D;57704;51.112;5.878;2023-07-31T15:17:19;19.26;81.14
70300;HTU21D;57704;51.112;5.878;2023-07-31T15:19:46;19.27;81.14
70300;HTU21D;57704;51.112;5.878;2023-07-31T15:22:11;19.18;81.78
70300;HTU21D;57704;51.112;5.878;2023-07-31T15:24:37;19.12;82.05
70300;HTU21D;57704;51.112;5.878;2023-07-31T15:27:03;19.12;82.53
70300;HTU21D;57704;51.112;5.878;2023-07-31T15:29:30;19.12;82.42
70300;HTU21D;57704;51.112;5.878;2023-07-31T15:31:56;19.14;82.39